sensor_id;sensor_type;location;lat;lon;timestamp;pressure;altitude;pressure_sealevel;temperature;humidity
36502;BME280;25393;46.108;3.390;2023-02-01T00:00:48;99200.25;;;5.41;100.00
36502;BME280;25393;46.108;3.390;2023-02-01T00:03:15;99193.59;;;5.36;100.00
36502;BME280;25393;46.108;3.390;2023-02-01T00:05:44;99186.66;;;5.35;100.00
36502;BME280;25393;46.108;3.390;2023-02-01T00:08:11;99201.19;;;5.40;100.00
36502;BME280;25393;46.108;3.390;2023-02-01T00:10:37;99182.38;;;5.34;100.00
36502;BME280;25393;46.108;3.390;2023-02-01T00:13:03;99176.50;;;5.30;100.00
36502;BME280;25393;46.108;3.390;2023-02-01T00:15:30;99174.72;;;5.31;100.00
36502;BME280;25393;46.108;3.390;2023-02-01T00:17:57;99189.72;;;5.41;100.00
36502;BME280;25393;46.108;3.390;2023-02-01T00:20:23;99190.44;;;5.43;100.00
36502;BME280;25393;46.108;3.390;2023-02-01T00:22:50;99183.72;;;5.39;100.00
36502;BME280;25393;46.108;3.390;2023-02-01T00:25:16;99178.44;;;5.39;100.00
36502;BME280;25393;46.108;3.390;2023-02-01T00:27:49;99156.50;;;5.28;100.00
36502;BME280;25393;46.108;3.390;2023-02-01T00:30:17;99174.88;;;5.40;100.00
36502;BME280;25393;46.108;3.390;2023-02-01T00:32:46;99170.34;;;5.42;100.00
36502;BME280;25393;46.108;3.390;2023-02-01T00:35:16;99164.59;;;5.37;100.00
36502;BME280;25393;46.108;3.390;2023-02-01T00:37:42;99170.56;;;5.39;100.00
36502;BME280;25393;46.108;3.390;2023-02-01T00:40:09;99168.16;;;5.36;100.00
36502;BME280;25393;46.108;3.390;2023-02-01T00:42:36;99170.06;;;5.34;100.00
36502;BME280;25393;46.108;3.390;2023-02-01T00:45:03;99163.34;;;5.30;100.00
36502;BME280;25393;46.108;3.390;2023-02-01T00:47:29;99161.75;;;5.28;100.00
36502;BME280;25393;46.108;3.390;2023-02-01T00:49:56;99158.63;;;5.23;100.00
36502;BME280;25393;46.108;3.390;2023-02-01T00:52:23;99152.28;;;5.25;100.00
36502;BME280;25393;46.108;3.390;2023-02-01T00:54:52;99172.56;;;5.36;100.00
36502;BME280;25393;46.108;3.390;2023-02-01T00:57:19;99151.34;;;5.26;100.00
36502;BME280;25393;46.108;3.390;2023-02-01T00:59:48;99144.84;;;5.19;100.00
36502;BME280;25393;46.108;3.390;2023-02-01T01:02:15;99173.84;;;5.30;100.00
36502;BME280;25393;46.108;3.390;2023-02-01T01:04:42;99175.13;;;5.25;100.00
36502;BME280;25393;46.108;3.390;2023-02-01T01:07:08;99165.75;;;5.21;100.00
36502;BME280;25393;46.108;3.390;2023-02-01T01:09:35;99155.81;;;5.13;100.00
36502;BME280;25393;46.108;3.390;2023-02-01T01:12:02;99173.06;;;5.17;100.00
36502;BME280;25393;46.108;3.390;2023-02-01T01:14:29;99179.97;;;5.18;100.00
36502;BME280;25393;46.108;3.390;2023-02-01T01:16:56;99184.91;;;5.23;100.00
36502;BME280;25393;46.108;3.390;2023-02-01T01:19:25;99172.84;;;5.20;100.00
36502;BME280;25393;46.108;3.390;2023-02-01T01:21:55;99156.31;;;5.18;100.00
36502;BME280;25393;46.108;3.390;2023-02-01T01:24:24;99168.38;;;5.21;100.00
36502;BME280;25393;46.108;3.390;2023-02-01T01:26:51;99164.63;;;5.12;100.00
36502;BME280;25393;46.108;3.390;2023-02-01T01:29:19;99165.78;;;5.08;100.00
36502;BME280;25393;46.108;3.390;2023-02-01T01:31:45;99162.00;;;5.12;100.00
36502;BME280;25393;46.108;3.390;2023-02-01T01:34:12;99132.69;;;4.93;100.00
36502;BME280;25393;46.108;3.390;2023-02-01T01:36:38;99147.31;;;4.97;100.00
36502;BME280;25393;46.108;3.390;2023-02-01T01:39:05;99157.59;;;5.00;100.00
36502;BME280;25393;46.108;3.390;2023-02-01T01:41:32;99158.03;;;4.94;100.00
36502;BME280;25393;46.108;3.390;2023-02-01T01:44:04;99172.13;;;5.06;100.00
36502;BME280;25393;46.108;3.390;2023-02-01T01:46:36;99160.44;;;4.97;100.00
36502;BME280;25393;46.108;3.390;2023-02-01T01:49:14;99175.81;;;5.03;100.00
36502;BME280;25393;46.108;3.390;2023-02-01T01:51:45;99171.91;;;4.96;100.00
36502;BME280;25393;46.108;3.390;2023-02-01T01:54:17;99174.41;;;4.97;100.00
36502;BME280;25393;46.108;3.390;2023-02-01T01:56:51;99164.44;;;4.90;100.00
36502;BME280;25393;46.108;3.390;2023-02-01T01:59:26;99140.19;;;4.74;100.00
36502;BME280;25393;46.108;3.390;2023-02-01T02:01:55;99174.97;;;5.02;100.00
36502;BME280;25393;46.108;3.390;2023-02-01T02:04:22;99173.28;;;5.01;100.00
36502;BME280;25393;46.108;3.390;2023-02-01T02:07:00;99180.53;;;4.98;100.00
36502;BME280;25393;46.108;3.390;2023-02-01T02:09:28;99176.53;;;4.92;100.00
36502;BME280;25393;46.108;3.390;2023-02-01T02:11:55;99161.19;;;4.86;100.00
36502;BME280;25393;46.108;3.390;2023-02-01T02:14:23;99164.97;;;4.95;100.00
36502;BME280;25393;46.108;3.390;2023-02-01T02:22:57;99151.41;;;5.01;100.00
36502;BME280;25393;46.108;3.390;2023-02-01T02:36:01;99134.59;;;4.91;100.00
36502;BME280;25393;46.108;3.390;2023-02-01T02:38:47;99131.34;;;4.87;100.00
36502;BME280;25393;46.108;3.390;2023-02-01T02:41:19;99141.63;;;4.90;100.00
36502;BME280;25393;46.108;3.390;2023-02-01T02:50:09;99123.38;;;4.89;100.00
36502;BME280;25393;46.108;3.390;2023-02-01T02:53:04;99142.78;;;4.86;100.00
36502;BME280;25393;46.108;3.390;2023-02-01T02:55:53;99128.75;;;4.75;100.00
36502;BME280;25393;46.108;3.390;2023-02-01T02:58:42;99135.75;;;4.87;100.00
36502;BME280;25393;46.108;3.390;2023-02-01T03:01:31;99127.47;;;4.80;100.00
36502;BME280;25393;46.108;3.390;2023-02-01T03:04:17;99123.50;;;4.75;100.00
36502;BME280;25393;46.108;3.390;2023-02-01T03:06:44;99155.63;;;4.91;100.00
36502;BME280;25393;46.108;3.390;2023-02-01T03:09:33;99150.47;;;4.89;100.00
36502;BME280;25393;46.108;3.390;2023-02-01T03:12:04;99163.72;;;4.88;100.00
36502;BME280;25393;46.108;3.390;2023-02-01T03:14:56;99146.06;;;4.77;100.00
36502;BME280;25393;46.108;3.390;2023-02-01T03:17:34;99155.84;;;4.88;100.00
36502;BME280;25393;46.108;3.390;2023-02-01T03:20:07;99129.16;;;4.69;100.00
36502;BME280;25393;46.108;3.390;2023-02-01T03:22:40;99158.34;;;4.89;100.00
36502;BME280;25393;46.108;3.390;2023-02-01T03:25:15;99166.66;;;4.96;100.00
36502;BME280;25393;46.108;3.390;2023-02-01T03:27:53;99171.72;;;4.99;100.00
36502;BME280;25393;46.108;3.390;2023-02-01T03:30:42;99170.44;;;4.92;100.00
36502;BME280;25393;46.108;3.390;2023-02-01T03:33:15;99161.09;;;4.88;100.00
36502;BME280;25393;46.108;3.390;2023-02-01T03:36:29;99175.28;;;4.98;100.00
36502;BME280;25393;46.108;3.390;2023-02-01T03:39:07;99172.41;;;5.01;100.00
36502;BME280;25393;46.108;3.390;2023-02-01T03:41:46;99145.84;;;4.93;100.00
36502;BME280;25393;46.108;3.390;2023-02-01T03:44:24;99171.25;;;5.05;100.00
36502;BME280;25393;46.108;3.390;2023-02-01T03:46:56;99184.19;;;5.08;100.00
36502;BME280;25393;46.108;3.390;2023-02-01T03:49:32;99181.34;;;5.11;100.00
36502;BME280;25393;46.108;3.390;2023-02-01T03:52:05;99169.91;;;4.99;100.00
36502;BME280;25393;46.108;3.390;2023-02-01T03:54:33;99145.63;;;4.83;100.00
36502;BME280;25393;46.108;3.390;2023-02-01T03:57:07;99184.22;;;4.95;100.00
36502;BME280;25393;46.108;3.390;2023-02-01T03:59:40;99164.34;;;4.79;100.00
36502;BME280;25393;46.108;3.390;2023-02-01T04:02:07;99170.03;;;4.85;100.00
36502;BME280;25393;46.108;3.390;2023-02-01T04:04:34;99179.19;;;4.92;100.00
36502;BME280;25393;46.108;3.390;2023-02-01T04:07:01;99175.81;;;4.78;100.00
36502;BME280;25393;46.108;3.390;2023-02-01T04:09:28;99175.91;;;4.76;100.00
36502;BME280;25393;46.108;3.390;2023-02-01T04:11:54;99188.72;;;4.81;100.00
36502;BME280;25393;46.108;3.390;2023-02-01T04:14:21;99184.94;;;4.72;100.00
36502;BME280;25393;46.108;3.390;2023-02-01T04:16:47;99176.03;;;4.75;100.00
36502;BME280;25393;46.108;3.390;2023-02-01T04:19:14;99182.75;;;4.66;100.00
36502;BME280;25393;46.108;3.390;2023-02-01T04:21:40;99183.78;;;4.64;100.00
36502;BME280;25393;46.108;3.390;2023-02-01T04:24:07;99170.97;;;4.59;100.00
36502;BME280;25393;46.108;3.390;2023-02-01T04:26:34;99200.81;;;4.71;100.00
36502;BME280;25393;46.108;3.390;2023-02-01T04:29:04;99188.19;;;4.63;100.00
36502;BME280;25393;46.108;3.390;2023-02-01T04:31:34;99178.31;;;4.67;100.00
36502;BME280;25393;46.108;3.390;2023-02-01T04:34:04;99185.06;;;4.71;100.00
36502;BME280;25393;46.108;3.390;2023-02-01T04:36:32;99176.00;;;4.62;100.00
36502;BME280;25393;46.108;3.390;2023-02-01T04:39:04;99182.94;;;4.76;100.00
36502;BME280;25393;46.108;3.390;2023-02-01T04:41:31;99177.91;;;4.73;100.00
36502;BME280;25393;46.108;3.390;2023-02-01T04:44:01;99186.53;;;4.75;100.00
36502;BME280;25393;46.108;3.390;2023-02-01T04:46:30;99189.16;;;4.75;100.00
36502;BME280;25393;46.108;3.390;2023-02-01T04:48:56;99188.09;;;4.77;100.00
36502;BME280;25393;46.108;3.390;2023-02-01T04:51:23;99197.75;;;4.77;100.00
36502;BME280;25393;46.108;3.390;2023-02-01T04:53:49;99169.50;;;4.68;100.00
36502;BME280;25393;46.108;3.390;2023-02-01T04:56:16;99187.16;;;4.66;100.00
36502;BME280;25393;46.108;3.390;2023-02-01T04:58:42;99208.91;;;4.68;100.00
36502;BME280;25393;46.108;3.390;2023-02-01T05:01:09;99194.31;;;4.64;100.00
36502;BME280;25393;46.108;3.390;2023-02-01T05:03:35;99191.56;;;4.65;100.00
36502;BME280;25393;46.108;3.390;2023-02-01T05:06:02;99196.50;;;4.70;100.00
36502;BME280;25393;46.108;3.390;2023-02-01T05:08:31;99181.81;;;4.67;100.00
36502;BME280;25393;46.108;3.390;2023-02-01T05:11:07;99183.78;;;4.76;100.00
36502;BME280;25393;46.108;3.390;2023-02-01T05:13:53;99185.34;;;4.79;100.00
36502;BME280;25393;46.108;3.390;2023-02-01T05:16:20;99195.97;;;4.77;100.00
36502;BME280;25393;46.108;3.390;2023-02-01T05:18:46;99195.69;;;4.82;100.00
36502;BME280;25393;46.108;3.390;2023-02-01T05:21:13;99180.84;;;4.81;100.00
36502;BME280;25393;46.108;3.390;2023-02-01T05:23:39;99189.25;;;4.86;100.00
36502;BME280;25393;46.108;3.390;2023-02-01T05:26:24;99183.47;;;4.81;100.00
36502;BME280;25393;46.108;3.390;2023-02-01T05:28:51;99193.13;;;4.80;100.00
36502;BME280;25393;46.108;3.390;2023-02-01T05:31:18;99197.22;;;4.97;100.00
36502;BME280;25393;46.108;3.390;2023-02-01T05:33:44;99188.81;;;4.79;100.00
36502;BME280;25393;46.108;3.390;2023-02-01T05:36:11;99193.56;;;4.74;100.00
36502;BME280;25393;46.108;3.390;2023-02-01T05:38:37;99189.03;;;4.76;100.00
36502;BME280;25393;46.108;3.390;2023-02-01T05:41:04;99198.31;;;4.82;100.00
36502;BME280;25393;46.108;3.390;2023-02-01T05:43:33;99199.75;;;4.86;100.00
36502;BME280;25393;46.108;3.390;2023-02-01T05:45:59;99199.44;;;4.90;100.00
36502;BME280;25393;46.108;3.390;2023-02-01T05:48:26;99190.94;;;4.87;100.00
36502;BME280;25393;46.108;3.390;2023-02-01T05:50:52;99174.22;;;5.00;100.00
36502;BME280;25393;46.108;3.390;2023-02-01T05:53:19;99171.00;;;5.33;100.00
36502;BME280;25393;46.108;3.390;2023-02-01T05:55:46;99187.44;;;5.61;100.00
36502;BME280;25393;46.108;3.390;2023-02-01T05:58:12;99150.28;;;5.29;100.00
36502;BME280;25393;46.108;3.390;2023-02-01T06:00:39;99187.72;;;5.32;100.00
36502;BME280;25393;46.108;3.390;2023-02-01T06:03:06;99194.34;;;5.25;100.00
36502;BME280;25393;46.108;3.390;2023-02-01T06:05:34;99157.69;;;5.11;100.00
36502;BME280;25393;46.108;3.390;2023-02-01T06:08:00;99193.31;;;5.15;100.00
36502;BME280;25393;46.108;3.390;2023-02-01T06:10:27;99172.94;;;4.93;100.00
36502;BME280;25393;46.108;3.390;2023-02-01T06:12:53;99190.59;;;5.04;100.00
36502;BME280;25393;46.108;3.390;2023-02-01T06:15:20;99210.47;;;5.08;100.00
36502;BME280;25393;46.108;3.390;2023-02-01T06:17:46;99214.38;;;5.02;100.00
36502;BME280;25393;46.108;3.390;2023-02-01T06:20:14;99201.66;;;4.71;100.00
36502;BME280;25393;46.108;3.390;2023-02-01T06:22:41;99218.69;;;4.78;100.00
36502;BME280;25393;46.108;3.390;2023-02-01T06:25:09;99208.19;;;4.78;100.00
36502;BME280;25393;46.108;3.390;2023-02-01T06:27:39;99181.03;;;4.52;100.00
36502;BME280;25393;46.108;3.390;2023-02-01T06:30:09;99198.88;;;4.47;100.00
36502;BME280;25393;46.108;3.390;2023-02-01T06:32:39;99185.00;;;4.33;100.00
36502;BME280;25393;46.108;3.390;2023-02-01T06:35:08;99221.16;;;4.54;100.00
36502;BME280;25393;46.108;3.390;2023-02-01T06:37:40;99219.38;;;4.42;100.00
36502;BME280;25393;46.108;3.390;2023-02-01T06:40:10;99192.75;;;4.22;100.00
36502;BME280;25393;46.108;3.390;2023-02-01T06:42:39;99224.50;;;4.44;100.00
36502;BME280;25393;46.108;3.390;2023-02-01T06:45:09;99233.22;;;4.44;100.00
36502;BME280;25393;46.108;3.390;2023-02-01T06:47:39;99186.25;;;4.15;100.00
36502;BME280;25393;46.108;3.390;2023-02-01T06:50:09;99217.53;;;4.30;100.00
36502;BME280;25393;46.108;3.390;2023-02-01T06:52:38;99215.47;;;4.35;100.00
36502;BME280;25393;46.108;3.390;2023-02-01T06:55:08;99231.44;;;4.45;100.00
36502;BME280;25393;46.108;3.390;2023-02-01T06:57:39;99247.53;;;4.53;100.00
36502;BME280;25393;46.108;3.390;2023-02-01T07:00:09;99220.81;;;4.34;100.00
36502;BME280;25393;46.108;3.390;2023-02-01T07:02:38;99211.78;;;4.25;100.00
36502;BME280;25393;46.108;3.390;2023-02-01T07:05:08;99248.25;;;4.42;100.00
36502;BME280;25393;46.108;3.390;2023-02-01T07:07:35;99240.75;;;4.36;100.00
36502;BME280;25393;46.108;3.390;2023-02-01T07:10:06;99245.50;;;4.44;100.00
36502;BME280;25393;46.108;3.390;2023-02-01T07:12:39;99216.59;;;4.31;100.00
36502;BME280;25393;46.108;3.390;2023-02-01T07:15:09;99257.00;;;4.56;100.00
36502;BME280;25393;46.108;3.390;2023-02-01T07:17:38;99266.88;;;4.65;100.00
36502;BME280;25393;46.108;3.390;2023-02-01T07:20:08;99246.28;;;4.59;100.00
36502;BME280;25393;46.108;3.390;2023-02-01T07:22:39;99253.00;;;4.63;100.00
36502;BME280;25393;46.108;3.390;2023-02-01T07:25:08;99221.06;;;4.56;100.00
36502;BME280;25393;46.108;3.390;2023-02-01T07:27:38;99245.25;;;4.74;100.00
36502;BME280;25393;46.108;3.390;2023-02-01T07:30:05;99226.31;;;4.69;100.00
36502;BME280;25393;46.108;3.390;2023-02-01T07:32:38;99230.81;;;4.54;100.00
36502;BME280;25393;46.108;3.390;2023-02-01T07:35:08;99207.19;;;4.41;100.00
36502;BME280;25393;46.108;3.390;2023-02-01T07:37:35;99236.91;;;4.54;100.00
36502;BME280;25393;46.108;3.390;2023-02-01T07:40:06;99245.84;;;4.52;100.00
36502;BME280;25393;46.108;3.390;2023-02-01T07:42:34;99266.56;;;4.57;100.00
36502;BME280;25393;46.108;3.390;2023-02-01T07:45:00;99249.63;;;4.48;100.00
36502;BME280;25393;46.108;3.390;2023-02-01T07:47:45;99248.25;;;4.55;100.00
36502;BME280;25393;46.108;3.390;2023-02-01T07:50:12;99263.94;;;4.57;100.00
36502;BME280;25393;46.108;3.390;2023-02-01T07:52:39;99245.06;;;4.37;100.00
36502;BME280;25393;46.108;3.390;2023-02-01T07:55:08;99260.22;;;4.46;100.00
36502;BME280;25393;46.108;3.390;2023-02-01T07:57:35;99280.31;;;4.60;100.00
36502;BME280;25393;46.108;3.390;2023-02-01T08:00:09;99253.00;;;4.50;100.00
36502;BME280;25393;46.108;3.390;2023-02-01T08:02:54;99252.81;;;4.66;100.00
36502;BME280;25393;46.108;3.390;2023-02-01T08:05:23;99239.59;;;4.67;100.00
36502;BME280;25393;46.108;3.390;2023-02-01T08:07:50;99260.09;;;4.87;100.00
36502;BME280;25393;46.108;3.390;2023-02-01T08:10:17;99246.22;;;4.85;100.00
36502;BME280;25393;46.108;3.390;2023-02-01T08:12:45;99257.78;;;5.08;100.00
36502;BME280;25393;46.108;3.390;2023-02-01T08:15:15;99233.59;;;4.90;100.00
36502;BME280;25393;46.108;3.390;2023-02-01T08:17:48;99219.63;;;4.90;100.00
36502;BME280;25393;46.108;3.390;2023-02-01T08:20:19;99245.28;;;4.99;100.00
36502;BME280;25393;46.108;3.390;2023-02-01T08:22:50;99233.16;;;4.96;100.00
36502;BME280;25393;46.108;3.390;2023-02-01T08:25:20;99252.53;;;5.08;100.00
36502;BME280;25393;46.108;3.390;2023-02-01T08:27:47;99262.63;;;5.01;100.00
36502;BME280;25393;46.108;3.390;2023-02-01T08:30:16;99261.66;;;5.15;100.00
36502;BME280;25393;46.108;3.390;2023-02-01T08:32:43;99269.25;;;5.20;100.00
36502;BME280;25393;46.108;3.390;2023-02-01T08:35:09;99280.91;;;5.28;100.00
36502;BME280;25393;46.108;3.390;2023-02-01T08:37:39;99261.88;;;5.12;100.00
36502;BME280;25393;46.108;3.390;2023-02-01T08:40:09;99293.09;;;5.29;100.00
36502;BME280;25393;46.108;3.390;2023-02-01T08:42:39;99293.19;;;5.28;100.00
36502;BME280;25393;46.108;3.390;2023-02-01T08:45:18;99302.47;;;5.33;100.00
36502;BME280;25393;46.108;3.390;2023-02-01T08:47:46;99301.50;;;5.47;100.00
36502;BME280;25393;46.108;3.390;2023-02-01T08:50:14;99307.31;;;5.27;100.00
36502;BME280;25393;46.108;3.390;2023-02-01T08:52:40;99289.44;;;5.19;100.00
36502;BME280;25393;46.108;3.390;2023-02-01T08:55:10;99289.63;;;5.16;100.00
36502;BME280;25393;46.108;3.390;2023-02-01T08:57:37;99333.38;;;5.30;100.00
36502;BME280;25393;46.108;3.390;2023-02-01T09:00:11;99308.69;;;5.20;100.00
36502;BME280;25393;46.108;3.390;2023-02-01T09:02:39;99325.69;;;5.14;100.00
36502;BME280;25393;46.108;3.390;2023-02-01T09:05:10;99351.25;;;5.25;100.00
36502;BME280;25393;46.108;3.390;2023-02-01T09:07:40;99320.34;;;5.03;100.00
36502;BME280;25393;46.108;3.390;2023-02-01T09:10:10;99322.63;;;5.08;100.00
36502;BME280;25393;46.108;3.390;2023-02-01T09:12:40;99327.50;;;5.14;100.00
36502;BME280;25393;46.108;3.390;2023-02-01T09:15:09;99319.91;;;5.09;100.00
36502;BME280;25393;46.108;3.390;2023-02-01T09:17:40;99296.34;;;4.95;100.00
36502;BME280;25393;46.108;3.390;2023-02-01T09:20:09;99340.84;;;5.23;100.00
36502;BME280;25393;46.108;3.390;2023-02-01T09:22:39;99351.47;;;5.34;100.00
36502;BME280;25393;46.108;3.390;2023-02-01T09:25:10;99342.63;;;5.23;100.00
36502;BME280;25393;46.108;3.390;2023-02-01T09:27:39;99356.41;;;5.39;100.00
36502;BME280;25393;46.108;3.390;2023-02-01T09:30:09;99346.53;;;5.42;100.00
36502;BME280;25393;46.108;3.390;2023-02-01T09:32:39;99338.94;;;5.25;100.00
36502;BME280;25393;46.108;3.390;2023-02-01T09:35:08;99376.31;;;5.56;100.00
36502;BME280;25393;46.108;3.390;2023-02-01T09:37:36;99361.38;;;5.43;100.00
36502;BME280;25393;46.108;3.390;2023-02-01T09:40:04;99363.44;;;5.38;100.00
36502;BME280;25393;46.108;3.390;2023-02-01T09:42:52;99386.09;;;5.66;100.00
36502;BME280;25393;46.108;3.390;2023-02-01T09:48:41;99383.53;;;5.77;100.00
36502;BME280;25393;46.108;3.390;2023-02-01T09:51:16;99390.19;;;5.83;100.00
36502;BME280;25393;46.108;3.390;2023-02-01T09:54:05;99383.97;;;5.84;100.00
36502;BME280;25393;46.108;3.390;2023-02-01T09:57:00;99384.75;;;5.86;100.00
36502;BME280;25393;46.108;3.390;2023-02-01T10:00:00;99391.13;;;5.82;100.00
36502;BME280;25393;46.108;3.390;2023-02-01T10:02:50;99373.78;;;5.79;100.00
36502;BME280;25393;46.108;3.390;2023-02-01T10:05:48;99380.38;;;5.85;100.00
36502;BME280;25393;46.108;3.390;2023-02-01T10:08:43;99380.38;;;5.85;100.00
36502;BME280;25393;46.108;3.390;2023-02-01T10:17:12;99364.09;;;6.05;100.00
36502;BME280;25393;46.108;3.390;2023-02-01T10:20:12;99367.66;;;6.04;100.00
36502;BME280;25393;46.108;3.390;2023-02-01T10:25:54;99381.03;;;6.01;100.00
36502;BME280;25393;46.108;3.390;2023-02-01T10:28:22;99367.13;;;5.99;100.00
36502;BME280;25393;46.108;3.390;2023-02-01T10:30:53;99372.03;;;6.16;100.00
36502;BME280;25393;46.108;3.390;2023-02-01T10:33:25;99377.38;;;6.40;100.00
36502;BME280;25393;46.108;3.390;2023-02-01T10:35:55;99386.84;;;6.42;100.00
36502;BME280;25393;46.108;3.390;2023-02-01T10:38:27;99392.16;;;6.53;100.00
36502;BME280;25393;46.108;3.390;2023-02-01T10:40:59;99388.75;;;6.64;100.00
36502;BME280;25393;46.108;3.390;2023-02-01T10:43:28;99373.19;;;6.61;100.00
36502;BME280;25393;46.108;3.390;2023-02-01T10:45:54;99377.47;;;6.62;100.00
36502;BME280;25393;46.108;3.390;2023-02-01T10:48:21;99353.69;;;6.51;100.00
36502;BME280;25393;46.108;3.390;2023-02-01T10:50:59;99375.06;;;6.59;100.00
36502;BME280;25393;46.108;3.390;2023-02-01T10:54:05;99367.16;;;6.59;100.00
36502;BME280;25393;46.108;3.390;2023-02-01T10:56:43;99365.53;;;6.69;100.00
36502;BME280;25393;46.108;3.390;2023-02-01T10:59:19;99355.19;;;6.90;100.00
36502;BME280;25393;46.108;3.390;2023-02-01T11:01:48;99366.19;;;7.19;100.00
36502;BME280;25393;46.108;3.390;2023-02-01T11:04:19;99358.81;;;7.35;100.00
36502;BME280;25393;46.108;3.390;2023-02-01T11:07:04;99342.19;;;7.45;100.00
36502;BME280;25393;46.108;3.390;2023-02-01T11:09:40;99342.41;;;7.65;100.00
36502;BME280;25393;46.108;3.390;2023-02-01T11:12:39;99349.25;;;7.89;100.00
36502;BME280;25393;46.108;3.390;2023-02-01T11:15:21;99343.25;;;8.10;100.00
36502;BME280;25393;46.108;3.390;2023-02-01T11:17:50;99344.34;;;8.07;100.00
36502;BME280;25393;46.108;3.390;2023-02-01T11:22:58;99296.13;;;7.72;98.08
36502;BME280;25393;46.108;3.390;2023-02-01T11:25:25;99322.75;;;7.80;98.65
36502;BME280;25393;46.108;3.390;2023-02-01T11:27:54;99333.91;;;7.94;98.65
36502;BME280;25393;46.108;3.390;2023-02-01T11:30:42;99301.16;;;7.86;100.00
36502;BME280;25393;46.108;3.390;2023-02-01T11:33:20;99324.38;;;8.47;96.11
36502;BME280;25393;46.108;3.390;2023-02-01T11:35:51;99324.50;;;8.78;91.36
36502;BME280;25393;46.108;3.390;2023-02-01T11:38:27;99320.63;;;8.82;89.33
36502;BME280;25393;46.108;3.390;2023-02-01T11:40:54;99294.72;;;8.76;90.61
36502;BME280;25393;46.108;3.390;2023-02-01T11:43:28;99309.03;;;9.35;90.45
36502;BME280;25393;46.108;3.390;2023-02-01T11:46:00;99292.88;;;9.38;85.43
36502;BME280;25393;46.108;3.390;2023-02-01T11:48:29;99302.31;;;9.62;83.29
36502;BME280;25393;46.108;3.390;2023-02-01T11:51:06;99307.91;;;9.59;82.81
36502;BME280;25393;46.108;3.390;2023-02-01T11:53:57;99303.16;;;9.62;80.84
36502;BME280;25393;46.108;3.390;2023-02-01T11:56:40;99304.59;;;9.66;79.23
36502;BME280;25393;46.108;3.390;2023-02-01T12:04:45;99309.66;;;9.48;76.42
36502;BME280;25393;46.108;3.390;2023-02-01T12:07:38;99307.63;;;9.31;74.80
36502;BME280;25393;46.108;3.390;2023-02-01T12:10:34;99311.13;;;9.11;75.41
36502;BME280;25393;46.108;3.390;2023-02-01T12:19:05;99306.91;;;8.56;80.94
36502;BME280;25393;46.108;3.390;2023-02-01T12:21:48;99302.78;;;8.31;81.74
36502;BME280;25393;46.108;3.390;2023-02-01T12:24:52;99300.88;;;8.33;80.06
36502;BME280;25393;46.108;3.390;2023-02-01T12:27:45;99283.00;;;8.03;78.66
36502;BME280;25393;46.108;3.390;2023-02-01T12:35:56;99305.44;;;7.42;81.43
36502;BME280;25393;46.108;3.390;2023-02-01T12:41:45;99297.78;;;7.39;84.83
36502;BME280;25393;46.108;3.390;2023-02-01T12:49:59;99242.50;;;7.60;83.75
36502;BME280;25393;46.108;3.390;2023-02-01T12:52:40;99272.59;;;7.80;83.94
36502;BME280;25393;46.108;3.390;2023-02-01T12:55:24;99277.38;;;7.86;85.25
36502;BME280;25393;46.108;3.390;2023-02-01T12:58:13;99258.81;;;7.65;80.71
36502;BME280;25393;46.108;3.390;2023-02-01T13:00:50;99271.66;;;7.59;80.51
36502;BME280;25393;46.108;3.390;2023-02-01T13:03:44;99262.66;;;7.50;79.33
36502;BME280;25393;46.108;3.390;2023-02-01T13:06:29;99260.63;;;7.65;79.70
36502;BME280;25393;46.108;3.390;2023-02-01T13:11:35;99250.31;;;7.50;84.95
36502;BME280;25393;46.108;3.390;2023-02-01T13:16:56;99251.75;;;7.43;80.63
36502;BME280;25393;46.108;3.390;2023-02-01T13:19:35;99251.50;;;7.35;80.87
36502;BME280;25393;46.108;3.390;2023-02-01T13:22:12;99238.31;;;7.35;80.38
36502;BME280;25393;46.108;3.390;2023-02-01T13:24:42;99240.59;;;7.51;81.08
36502;BME280;25393;46.108;3.390;2023-02-01T13:27:16;99221.78;;;7.44;80.89
36502;BME280;25393;46.108;3.390;2023-02-01T13:30:03;99242.16;;;7.53;80.34
36502;BME280;25393;46.108;3.390;2023-02-01T13:41:15;99231.13;;;7.37;80.22
36502;BME280;25393;46.108;3.390;2023-02-01T13:43:53;99208.81;;;7.19;80.01
36502;BME280;25393;46.108;3.390;2023-02-01T13:46:21;99230.78;;;7.31;79.59
36502;BME280;25393;46.108;3.390;2023-02-01T13:48:55;99221.41;;;7.27;81.42
36502;BME280;25393;46.108;3.390;2023-02-01T13:51:42;99221.53;;;7.36;81.91
36502;BME280;25393;46.108;3.390;2023-02-01T13:56:52;99187.47;;;7.44;84.16
36502;BME280;25393;46.108;3.390;2023-02-01T14:05:12;99208.94;;;7.40;81.70
36502;BME280;25393;46.108;3.390;2023-02-01T14:13:37;99209.06;;;7.05;82.10
36502;BME280;25393;46.108;3.390;2023-02-01T14:16:16;99220.69;;;7.14;82.08
36502;BME280;25393;46.108;3.390;2023-02-01T14:21:33;99207.53;;;7.14;81.44
36502;BME280;25393;46.108;3.390;2023-02-01T14:26:50;99213.25;;;7.30;79.45
36502;BME280;25393;46.108;3.390;2023-02-01T14:29:26;99215.66;;;7.33;79.01
36502;BME280;25393;46.108;3.390;2023-02-01T14:32:05;99219.84;;;7.35;77.87
36502;BME280;25393;46.108;3.390;2023-02-01T14:37:06;99229.06;;;7.19;78.55
36502;BME280;25393;46.108;3.390;2023-02-01T14:40:00;99223.69;;;7.09;78.95
36502;BME280;25393;46.108;3.390;2023-02-01T14:42:42;99223.41;;;6.90;80.59
36502;BME280;25393;46.108;3.390;2023-02-01T14:55:59;99238.06;;;7.05;79.87
36502;BME280;25393;46.108;3.390;2023-02-01T15:00:57;99224.63;;;7.08;79.20
36502;BME280;25393;46.108;3.390;2023-02-01T15:05:57;99242.13;;;7.09;77.66
36502;BME280;25393;46.108;3.390;2023-02-01T15:08:33;99225.81;;;7.04;79.09
36502;BME280;25393;46.108;3.390;2023-02-01T15:11:01;99219.13;;;6.89;77.32
36502;BME280;25393;46.108;3.390;2023-02-01T15:13:29;99214.19;;;6.84;77.24
36502;BME280;25393;46.108;3.390;2023-02-01T15:16:16;99229.06;;;6.85;78.73
36502;BME280;25393;46.108;3.390;2023-02-01T15:18:46;99218.09;;;6.68;79.57
36502;BME280;25393;46.108;3.390;2023-02-01T15:21:22;99247.94;;;6.79;79.33
36502;BME280;25393;46.108;3.390;2023-02-01T15:24:31;99236.13;;;6.85;79.26
36502;BME280;25393;46.108;3.390;2023-02-01T15:27:09;99220.03;;;6.77;78.72